Time;durP1;ratioP1;P1;durP2;ratioP2;P2;SDS_P1;SDS_P2;PMS_P1;PMS_P2;Temp;Humidity;BMP_temperature;BMP_pressure;BME280_temperature;BME280_humidity;BME280_pressure;Samples;Min_cycle;Max_cycle;Signal;HPM_P1;HPM_P2
2023/10/05 00:03:50;;;;;;;4.07;2.37;;;;;;;8.96;100.00;98377.53;4989274;28;20426;-86
2023/10/05 00:06:17;;;;;;;4.27;2.67;;;;;;;8.96;100.00;98380.16;4997461;28;20823;-86
2023/10/05 00:08:47;;;;;;;3.95;2.40;;;;;;;8.95;100.00;98371.44;4998423;28;20406;-86
2023/10/05 00:11:23;;;;;;;4.88;2.30;;;;;;;8.93;100.00;98374.31;5006567;28;20426;-86
2023/10/05 00:13:50;;;;;;;5.80;2.58;;;;;;;8.89;100.00;98364.38;5010414;28;20401;-86
2023/10/05 00:16:22;;;;;;;3.22;2.13;;;;;;;8.86;100.00;98360.34;5005094;28;20452;-85
2023/10/05 00:18:51;;;;;;;3.75;2.50;;;;;;;8.84;100.00;98369.50;5002239;28;20418;-86
2023/10/05 00:21:19;;;;;;;5.68;2.65;;;;;;;8.80;100.00;98363.03;4998160;28;20396;-86
2023/10/05 00:23:50;;;;;;;3.20;2.05;;;;;;;8.79;100.00;98356.97;5008027;28;20927;-87
2023/10/05 00:26:20;;;;;;;5.25;2.38;;;;;;;8.77;100.00;98361.63;5007714;28;20445;-86
2023/10/05 00:28:55;;;;;;;2.80;1.93;;;;;;;8.78;100.00;98363.25;5008372;28;20806;-86
2023/10/05 00:31:24;;;;;;;3.80;2.50;;;;;;;8.77;100.00;98359.00;5001096;28;20418;-86
2023/10/05 00:33:56;;;;;;;3.70;2.42;;;;;;;8.77;100.00;98352.91;5016126;28;20406;-86
2023/10/05 00:36:32;;;;;;;5.15;2.30;;;;;;;8.76;100.00;98344.19;4999985;28;20458;-86
2023/10/05 00:39:01;;;;;;;4.15;2.70;;;;;;;8.75;100.00;98339.13;5001475;28;20482;-86
2023/10/05 00:41:28;;;;;;;2.57;2.23;;;;;;;8.76;100.00;98338.09;5005458;28;20843;-86
2023/10/05 00:43:55;;;;;;;3.30;2.00;;;;;;;8.77;100.00;98343.16;5006062;28;20441;-86
2023/10/05 00:46:21;;;;;;;3.53;2.50;;;;;;;8.75;100.00;98347.84;5007658;28;20523;-86
2023/10/05 00:49:00;;;;;;;3.88;2.53;;;;;;;8.77;100.00;98350.28;4999544;28;20418;-86
2023/10/05 00:51:31;;;;;;;3.90;2.30;;;;;;;8.77;100.00;98345.81;4999030;28;20413;-86
2023/10/05 00:54:05;;;;;;;7.15;2.92;;;;;;;8.76;100.00;98335.44;4999790;28;20433;-87
2023/10/05 00:56:35;;;;;;;5.35;2.55;;;;;;;8.78;100.00;98338.69;5007048;28;20414;-86
2023/10/05 00:59:06;;;;;;;3.35;2.28;;;;;;;8.78;100.00;98336.06;5016668;28;20403;-87
2023/10/05 01:02:00;;;;;;;3.70;2.55;;;;;;;8.76;100.00;98320.44;5029784;28;20412;-87
2023/10/05 01:04:29;;;;;;;4.20;2.35;;;;;;;8.76;100.00;98323.06;5024668;28;20446;-86
2023/10/05 01:07:06;;;;;;;4.32;2.20;;;;;;;8.76;100.00;98315.16;5013592;28;20419;-87
2023/10/05 01:14:38;;;;;;;4.90;2.60;;;;;;;8.68;100.00;98310.13;5019994;28;20473;-88
2023/10/05 01:17:05;;;;;;;4.03;2.55;;;;;;;8.67;100.00;98305.88;5022683;28;20408;-87
2023/10/05 01:19:34;;;;;;;3.13;2.30;;;;;;;8.69;100.00;98305.66;5024846;28;20458;-87
2023/10/05 01:22:05;;;;;;;6.32;2.40;;;;;;;8.67;100.00;98300.59;5024483;28;20405;-87
2023/10/05 01:24:36;;;;;;;3.72;2.30;;;;;;;8.66;100.00;98298.97;5028639;28;20405;-87
2023/10/05 01:27:03;;;;;;;3.70;2.13;;;;;;;8.67;100.00;98305.88;5009846;28;20415;-87
2023/10/05 01:29:29;;;;;;;3.20;2.40;;;;;;;8.65;100.00;98297.34;5018615;28;20395;-87
2023/10/05 01:31:56;;;;;;;4.47;2.63;;;;;;;8.63;100.00;98304.72;5009554;28;20445;-87
2023/10/05 01:34:22;;;;;;;4.50;2.45;;;;;;;8.59;100.00;98308.78;5009119;28;20402;-87
2023/10/05 01:36:48;;;;;;;5.22;2.40;;;;;;;8.56;100.00;98311.88;5028253;28;20412;-87
2023/10/05 01:39:18;;;;;;;3.80;2.30;;;;;;;8.56;100.00;98298.69;5013069;28;20410;-87
2023/10/05 01:41:47;;;;;;;3.22;2.35;;;;;;;8.56;100.00;98298.69;5010749;28;20411;-87
2023/10/05 01:44:14;;;;;;;2.45;1.98;;;;;;;8.56;100.00;98306.59;5003480;28;20422;-87
2023/10/05 01:46:41;;;;;;;2.80;2.08;;;;;;;8.59;100.00;98302.69;5012921;28;20425;-87
2023/10/05 01:49:08;;;;;;;4.30;2.75;;;;;;;8.56;100.00;98293.41;5026825;28;20405;-87
2023/10/05 01:51:34;;;;;;;3.13;2.33;;;;;;;8.57;100.00;98289.72;5020679;28;20436;-88
2023/10/05 01:54:24;;;;;;;3.65;2.33;;;;;;;8.57;100.00;98289.72;5016590;28;20493;-88
2023/10/05 01:56:51;;;;;;;3.67;2.33;;;;;;;8.56;100.00;98293.41;5027166;28;20415;-87
2023/10/05 01:59:21;;;;;;;3.97;2.40;;;;;;;8.55;100.00;98289.13;5033746;28;20397;-87
2023/10/05 02:01:47;;;;;;;4.93;2.38;;;;;;;8.51;100.00;98285.31;5015313;28;20395;-87
2023/10/05 02:04:17;;;;;;;4.00;2.60;;;;;;;8.51;100.00;98280.03;5013699;28;20422;-88
2023/10/05 02:06:48;;;;;;;5.55;2.80;;;;;;;8.49;100.00;98288.16;5023926;28;20397;-88
2023/10/05 02:09:19;;;;;;;3.30;2.40;;;;;;;8.48;100.00;98291.84;5022905;28;20544;-88
2023/10/05 02:11:47;;;;;;;4.23;2.37;;;;;;;8.49;100.00;98292.66;5008991;28;20466;-88
2023/10/05 02:14:16;;;;;;;3.93;2.70;;;;;;;8.46;100.00;98293.06;5008941;28;20410;-87
2023/10/05 02:16:45;;;;;;;4.03;2.60;;;;;;;8.41;100.00;98285.00;5005843;28;20814;-87
2023/10/05 02:19:14;;;;;;;4.27;2.60;;;;;;;8.39;100.00;98281.75;5009307;28;20398;-87
2023/10/05 02:21:40;;;;;;;4.07;2.33;;;;;;;8.38;100.00;98280.94;5005440;28;20747;-87
2023/10/05 02:27:09;;;;;;;3.03;2.30;;;;;;;8.40;100.00;98289.47;5014941;28;20404;-88
2023/10/05 02:29:31;;;;;;;3.53;2.50;;;;;;;8.38;100.00;98286.22;5024854;28;20413;-87
2023/10/05 02:34:59;;;;;;;5.18;3.10;;;;;;;8.36;100.00;98284.81;5015250;28;20411;-88
2023/10/05 02:37:28;;;;;;;3.20;2.20;;;;;;;8.31;100.00;98277.56;5002683;28;20412;-87
2023/10/05 02:39:57;;;;;;;4.68;2.38;;;;;;;8.30;100.00;98280.38;5008094;28;20429;-89
2023/10/05 02:42:25;;;;;;;3.90;2.22;;;;;;;8.32;100.00;98287.09;5008081;28;20418;-87
2023/10/05 02:44:53;;;;;;;5.28;2.47;;;;;;;8.33;100.00;98285.25;5015967;28;20417;-88
2023/10/05 02:47:23;;;;;;;3.88;2.38;;;;;;;8.33;100.00;98283.44;5008117;28;20793;-89
2023/10/05 02:49:49;;;;;;;4.30;2.50;;;;;;;8.34;100.00;98278.97;5007740;28;20421;-88
2023/10/05 02:52:16;;;;;;;3.85;2.47;;;;;;;8.34;100.00;98276.31;5015901;28;20421;-88
2023/10/05 02:54:42;;;;;;;4.30;2.30;;;;;;;8.37;100.00;98273.25;5015936;28;20433;-89
2023/10/05 02:57:10;;;;;;;3.33;2.28;;;;;;;8.38;100.00;98274.88;5008266;28;20411;-87
2023/10/05 02:59:36;;;;;;;4.68;2.30;;;;;;;8.37;100.00;98281.97;5010263;28;20409;-87
2023/10/05 03:02:07;;;;;;;7.18;2.70;;;;;;;8.38;100.00;98272.22;5023621;28;20397;-87
2023/10/05 03:04:56;;;;;;;3.53;2.40;;;;;;;8.38;100.00;98265.13;5014201;28;20414;-89
2023/10/05 03:07:25;;;;;;;2.88;2.20;;;;;;;8.41;100.00;98267.34;5015650;28;20399;-86
2023/10/05 03:09:52;;;;;;;2.95;2.10;;;;;;;8.44;100.00;98260.81;5013251;28;20467;-88
2023/10/05 03:12:23;;;;;;;2.30;2.10;;;;;;;8.45;100.00;98267.69;5012601;28;20502;-88
2023/10/05 03:14:54;;;;;;;5.70;2.53;;;;;;;8.45;100.00;98265.06;5021919;28;20460;-88
2023/10/05 03:17:22;;;;;;;4.68;2.80;;;;;;;8.43;100.00;98265.28;4998823;28;20441;-88
2023/10/05 03:19:53;;;;;;;3.42;2.45;;;;;;;8.44;100.00;98263.44;5013066;28;20402;-88
2023/10/05 03:22:23;;;;;;;3.30;2.33;;;;;;;8.46;100.00;98279.88;5012144;28;20411;-88
2023/10/05 03:24:49;;;;;;;3.90;2.50;;;;;;;8.46;100.00;98278.03;5014999;28;20402;-87
2023/10/05 03:27:16;;;;;;;3.72;2.30;;;;;;;8.48;100.00;98262.00;5017922;28;20402;-86
2023/10/05 03:29:46;;;;;;;3.83;2.45;;;;;;;8.51;100.00;98270.28;5011235;28;20478;-86
2023/10/05 03:34:42;;;;;;;4.35;2.65;;;;;;;8.52;100.00;98269.25;5011762;28;20420;-87
2023/10/05 03:37:13;;;;;;;4.55;2.80;;;;;;;8.53;100.00;98275.34;5008456;28;20390;-86
2023/10/05 03:39:52;;;;;;;4.22;2.70;;;;;;;8.56;100.00;98288.13;5008855;28;20574;-86
2023/10/05 03:42:22;;;;;;;4.32;2.72;;;;;;;8.56;100.00;98288.13;5006785;28;20419;-86
2023/10/05 03:44:59;;;;;;;2.80;2.20;;;;;;;8.58;100.00;98280.78;5016393;28;20397;-87
2023/10/05 03:47:25;;;;;;;2.42;2.22;;;;;;;8.60;100.00;98284.00;5014243;28;20406;-88
2023/10/05 03:49:56;;;;;;;2.97;2.25;;;;;;;8.62;100.00;98286.44;5015002;28;20424;-86
2023/10/05 03:52:23;;;;;;;3.20;2.40;;;;;;;8.64;100.00;98289.69;5011145;28;20409;-87
2023/10/05 03:54:52;;;;;;;3.47;2.20;;;;;;;8.64;100.00;98287.03;5013633;28;20438;-84
2023/10/05 03:57:19;;;;;;;4.45;2.40;;;;;;;8.64;100.00;98294.97;5018406;28;20430;-85
2023/10/05 03:59:45;;;;;;;3.97;2.50;;;;;;;8.63;100.00;98293.34;5018990;28;20456;-86
2023/10/05 04:02:13;;;;;;;5.85;3.00;;;;;;;8.59;100.00;98294.78;5014126;28;20759;-84
2023/10/05 04:04:42;;;;;;;3.80;2.30;;;;;;;8.59;100.00;98292.94;5013168;28;20434;-85
2023/10/05 04:07:10;;;;;;;3.05;2.40;;;;;;;8.61;100.00;98296.19;5012018;28;20409;-85
2023/10/05 04:09:36;;;;;;;3.22;2.42;;;;;;;8.62;100.00;98299.63;5012662;28;20401;-86
2023/10/05 04:12:10;;;;;;;4.22;2.50;;;;;;;8.61;100.00;98298.81;5013677;28;20396;-86
2023/10/05 04:14:38;;;;;;;3.45;2.50;;;;;;;8.59;100.00;98300.06;5018574;28;20426;-83
2023/10/05 04:17:11;;;;;;;5.93;2.97;;;;;;;8.55;100.00;98302.34;5015710;28;20441;-86
2023/10/05 04:19:41;;;;;;;5.05;2.67;;;;;;;8.54;100.00;98300.72;5016599;28;20412;-87
2023/10/05 04:22:09;;;;;;;4.03;2.70;;;;;;;8.54;100.00;98308.63;5017835;28;20518;-85
2023/10/05 04:24:35;;;;;;;3.50;2.40;;;;;;;8.56;100.00;98300.50;5012261;28;20447;-85
2023/10/05 04:27:04;;;;;;;3.30;2.40;;;;;;;8.55;100.00;98294.41;5015112;28;20403;-83
2023/10/05 04:29:31;;;;;;;4.67;2.70;;;;;;;8.55;100.00;98291.78;5010699;28;20909;-85
2023/10/05 04:31:58;;;;;;;4.20;2.53;;;;;;;8.57;100.00;98291.56;5018707;28;20434;-86
2023/10/05 04:34:28;;;;;;;5.72;3.03;;;;;;;8.57;100.00;98291.56;5013058;28;20395;-87
2023/10/05 04:36:54;;;;;;;3.40;2.80;;;;;;;8.58;100.00;98286.06;5012146;28;20438;-88
2023/10/05 04:39:32;;;;;;;4.03;2.75;;;;;;;8.61;100.00;98288.28;5004184;28;20406;-87
2023/10/05 04:42:11;;;;;;;4.90;2.70;;;;;;;8.62;100.00;98283.81;5005756;28;20399;-86
2023/10/05 04:44:37;;;;;;;4.30;2.47;;;;;;;8.62;100.00;98294.38;5009720;28;20414;-87
2023/10/05 04:47:04;;;;;;;4.05;2.50;;;;;;;8.62;100.00;98289.09;5013546;28;20451;-87
2023/10/05 04:49:31;;;;;;;3.07;2.30;;;;;;;8.62;100.00;98291.72;5005425;28;20431;-87
2023/10/05 04:51:59;;;;;;;3.97;2.70;;;;;;;8.61;100.00;98284.81;5007026;28;20766;-85
2023/10/05 04:54:27;;;;;;;5.68;2.65;;;;;;;8.61;100.00;98290.09;5003862;28;20402;-84
2023/10/05 04:56:54;;;;;;;5.82;2.85;;;;;;;8.59;100.00;98292.13;5001390;28;20409;-87
2023/10/05 04:59:37;;;;;;;3.85;2.65;;;;;;;8.60;100.00;98286.66;5001853;28;20403;-88
2023/10/05 05:02:18;;;;;;;4.80;2.60;;;;;;;8.62;100.00;98286.44;5006080;28;20415;-87
2023/10/05 05:07:19;;;;;;;2.92;2.38;;;;;;;8.61;100.00;98285.63;4997190;28;20406;-86
2023/10/05 05:09:47;;;;;;;3.65;2.60;;;;;;;8.60;100.00;98281.38;5008960;28;20493;-87
2023/10/05 05:12:17;;;;;;;3.92;2.58;;;;;;;8.62;100.00;98278.53;4997721;28;20427;-86
2023/10/05 05:14:44;;;;;;;2.90;2.25;;;;;;;8.61;100.00;98274.28;5007311;28;20405;-87
2023/10/05 05:17:13;;;;;;;2.67;2.10;;;;;;;8.59;100.00;98277.13;5003931;28;20428;-86
2023/10/05 05:19:39;;;;;;;3.72;2.75;;;;;;;8.57;100.00;98279.16;5011862;28;20443;-85
2023/10/05 05:22:06;;;;;;;5.68;2.80;;;;;;;8.55;100.00;98278.59;5008343;28;20410;-86
2023/10/05 05:24:33;;;;;;;3.25;2.60;;;;;;;8.55;100.00;98278.59;5002694;28;20418;-85
2023/10/05 05:27:10;;;;;;;3.78;2.50;;;;;;;8.57;100.00;98283.66;5004278;28;20441;-85
2023/10/05 05:29:36;;;;;;;6.15;2.95;;;;;;;8.55;100.00;98278.59;5011256;28;20444;-85
2023/10/05 05:32:15;;;;;;;3.38;2.40;;;;;;;8.55;100.00;98283.88;5010988;28;20406;-85
2023/10/05 05:34:43;;;;;;;4.03;2.67;;;;;;;8.56;100.00;98288.13;5001694;28;20472;-84
2023/10/05 05:37:28;;;;;;;8.35;2.90;;;;;;;8.56;100.00;98296.03;5007004;28;20407;-85
2023/10/05 05:39:54;;;;;;;5.60;3.28;;;;;;;8.57;100.00;98291.56;5004738;28;20398;-85
2023/10/05 05:42:25;;;;;;;3.97;2.75;;;;;;;8.58;100.00;98299.25;5014199;28;20409;-85
2023/10/05 05:44:55;;;;;;;3.40;2.78;;;;;;;8.61;100.00;98301.47;5012852;28;20417;-84
2023/10/05 05:47:21;;;;;;;5.05;2.83;;;;;;;8.63;100.00;98303.91;5013640;28;20464;-83
2023/10/05 05:49:47;;;;;;;4.93;2.63;;;;;;;8.65;100.00;98305.28;5008866;28;20399;-84
2023/10/05 05:52:14;;;;;;;2.78;2.28;;;;;;;8.70;100.00;98315.22;5005863;28;20803;-84
2023/10/05 05:54:41;;;;;;;3.07;2.47;;;;;;;8.71;100.00;98315.00;5005460;28;20796;-83
2023/10/05 05:57:07;;;;;;;5.75;3.08;;;;;;;8.70;100.00;98292.25;5005094;28;20390;-82
2023/10/05 05:59:35;;;;;;;3.53;2.73;;;;;;;8.75;100.00;98288.97;5005963;28;20494;-84
2023/10/05 06:02:04;;;;;;;5.30;2.97;;;;;;;8.77;100.00;98300.94;5021107;28;20405;-85
2023/10/05 06:04:32;;;;;;;4.72;3.10;;;;;;;8.78;100.00;98297.28;5022098;28;20422;-85
2023/10/05 06:06:58;;;;;;;3.80;2.85;;;;;;;8.79;100.00;98293.59;5011963;28;20410;-85
2023/10/05 06:09:26;;;;;;;3.70;2.90;;;;;;;8.81;100.00;98302.09;5020365;28;20400;-84
2023/10/05 06:11:53;;;;;;;4.22;2.92;;;;;;;8.84;100.00;98304.31;5015411;28;20406;-84
2023/10/05 06:14:19;;;;;;;4.63;3.10;;;;;;;8.87;100.00;98311.00;4986683;28;20437;-84
2023/10/05 06:16:48;;;;;;;7.10;3.10;;;;;;;8.88;100.00;98313.41;5015360;28;20401;-85
2023/10/05 06:19:14;;;;;;;4.63;3.08;;;;;;;8.92;100.00;98304.03;5014249;28;20398;-84
2023/10/05 06:21:42;;;;;;;4.35;3.10;;;;;;;8.98;100.00;98296.25;5006533;28;20409;-84
2023/10/05 06:24:08;;;;;;;6.53;3.00;;;;;;;9.03;100.00;98307.78;5018459;28;20419;-85
2023/10/05 06:26:34;;;;;;;10.23;3.70;;;;;;;9.07;100.00;98308.97;5008719;28;20403;-82
2023/10/05 06:29:00;;;;;;;3.42;2.60;;;;;;;9.12;100.00;98303.03;5011723;28;20402;-84
2023/10/05 06:31:27;;;;;;;3.72;2.75;;;;;;;9.16;100.00;98306.84;5004584;28;20417;-82
2023/10/05 06:33:55;;;;;;;3.33;2.70;;;;;;;9.20;100.00;98308.81;5017506;28;20924;-84
2023/10/05 06:36:21;;;;;;;3.92;2.58;;;;;;;9.25;100.00;98324.00;5012971;28;20767;-82
2023/10/05 06:38:49;;;;;;;4.80;2.73;;;;;;;9.28;100.00;98324.41;5006442;28;20411;-82
2023/10/05 06:41:19;;;;;;;3.20;2.70;;;;;;;9.33;100.00;98332.47;5011242;28;20400;-85
2023/10/05 06:43:47;;;;;;;5.85;2.58;;;;;;;9.38;100.00;98325.72;5011214;28;20506;-85
2023/10/05 06:46:17;;;;;;;4.72;2.80;;;;;;;9.43;100.00;98341.72;5009118;28;20414;-85
2023/10/05 06:48:44;;;;;;;3.40;2.65;;;;;;;9.50;100.00;98337.16;5010466;28;20406;-84
2023/10/05 06:51:15;;;;;;;3.85;2.60;;;;;;;9.60;100.00;98340.91;5020395;28;20423;-86
2023/10/05 06:53:43;;;;;;;4.28;2.45;;;;;;;9.70;100.00;98330.59;5019897;28;20412;-85
2023/10/05 06:56:11;;;;;;;3.53;2.67;;;;;;;9.81;100.00;98339.66;5010102;28;20465;-84
2023/10/05 06:58:37;;;;;;;4.95;2.65;;;;;;;9.91;100.00;98341.78;4983321;28;20461;-83
2023/10/05 07:01:03;;;;;;;2.72;2.45;;;;;;;9.99;100.00;98352.03;4982379;28;20433;-83
2023/10/05 07:03:29;;;;;;;4.93;2.80;;;;;;;10.06;100.00;98355.41;5000892;28;20476;-84
2023/10/05 07:05:55;;;;;;;5.75;3.22;;;;;;;10.10;100.00;98351.28;5002353;28;20405;-83
2023/10/05 07:08:23;;;;;;;4.80;3.10;;;;;;;10.15;100.00;98353.25;4999071;28;20398;-83
2023/10/05 07:10:49;;;;;;;4.35;3.10;;;;;;;10.21;100.00;98352.38;5004409;28;21065;-83
2023/10/05 07:13:19;;;;;;;4.88;3.03;;;;;;;10.27;100.00;98360.22;5019603;28;20422;-86
2023/10/05 07:15:45;;;;;;;4.40;2.90;;;;;;;10.35;100.00;98362.56;5002549;28;20458;-83
2023/10/05 07:18:12;;;;;;;3.88;2.88;;;;;;;10.43;100.00;98367.53;5002847;28;20428;-82
2023/10/05 07:20:41;;;;;;;5.22;2.85;;;;;;;10.52;100.00;98360.09;5011205;28;20408;-82
2023/10/05 07:23:07;;;;;;;3.55;3.00;;;;;;;10.60;100.00;98361.59;5000094;28;20818;-83
2023/10/05 07:25:36;;;;;;;4.70;2.88;;;;;;;10.68;100.00;98350.66;5007453;28;20519;-83
2023/10/05 07:28:03;;;;;;;3.70;2.77;;;;;;;10.75;100.00;98357.47;5008739;28;20397;-84
2023/10/05 07:30:29;;;;;;;6.53;3.58;;;;;;;10.79;100.00;98357.81;5000816;28;20770;-82
2023/10/05 07:32:56;;;;;;;5.90;3.50;;;;;;;10.86;100.00;98354.03;5005975;28;20461;-84
2023/10/05 07:35:22;;;;;;;5.18;3.05;;;;;;;10.95;100.00;98362.47;5001549;28;20404;-84
2023/10/05 07:37:48;;;;;;;4.93;3.70;;;;;;;11.06;100.00;98360.84;4998195;28;20417;-82
2023/10/05 07:40:14;;;;;;;4.75;3.47;;;;;;;11.13;100.00;98372.13;4997558;28;20398;-83
2023/10/05 07:42:42;;;;;;;4.97;2.97;;;;;;;11.24;100.00;98373.97;4997385;28;20796;-82
2023/10/05 07:45:11;;;;;;;4.40;2.67;;;;;;;11.37;100.00;98375.56;5000461;28;20426;-83
2023/10/05 07:47:41;;;;;;;3.92;2.65;;;;;;;11.49;100.00;98379.84;5010362;28;20409;-84
2023/10/05 07:50:10;;;;;;;4.95;2.88;;;;;;;11.57;100.00;98374.19;5005172;28;20407;-85
2023/10/05 07:52:38;;;;;;;4.70;2.70;;;;;;;11.69;100.00;98387.44;4986183;28;20416;-82
2023/10/05 07:55:05;;;;;;;4.30;2.83;;;;;;;11.85;100.00;98388.59;5001773;28;20407;-84
2023/10/05 07:57:32;;;;;;;4.60;2.67;;;;;;;11.98;100.00;98383.81;5012850;28;20425;-83
2023/10/05 07:59:59;;;;;;;4.95;3.10;;;;;;;12.06;100.00;98379.19;5007544;28;20411;-84
2023/10/05 08:02:25;;;;;;;8.52;3.75;;;;;;;12.03;100.00;98381.25;5004519;28;20412;-84
2023/10/05 08:04:51;;;;;;;11.27;4.22;;;;;;;12.01;100.00;98382.53;5011406;28;20409;-84
2023/10/05 08:07:18;;;;;;;6.43;3.30;;;;;;;12.06;100.00;98373.88;5007995;28;20505;-82
2023/10/05 08:09:44;;;;;;;5.43;3.20;;;;;;;12.11;100.00;98379.25;5005177;28;20484;-83
2023/10/05 08:12:13;;;;;;;4.97;3.05;;;;;;;12.18;100.00;98382.63;5013104;28;20424;-83
2023/10/05 08:14:40;;;;;;;5.60;2.90;;;;;;;12.26;100.00;98388.31;5002347;28;20431;-83
2023/10/05 08:17:07;;;;;;;7.50;3.22;;;;;;;12.38;100.00;98397.06;4998882;28;20871;-83
2023/10/05 08:19:33;;;;;;;5.47;3.10;;;;;;;12.54;100.00;98387.53;4995744;28;20434;-85
2023/10/05 08:22:00;;;;;;;6.95;3.10;;;;;;;12.72;100.00;98389.94;4995948;28;20862;-84
2023/10/05 08:24:26;;;;;;;4.57;2.60;;;;;;;12.92;100.00;98401.97;5002853;28;20911;-82
2023/10/05 08:26:56;;;;;;;4.25;2.67;;;;;;;13.07;100.00;98410.19;4996289;28;20867;-85
2023/10/05 08:29:22;;;;;;;4.65;2.63;;;;;;;13.15;100.00;98404.53;4998968;28;20403;-83
2023/10/05 08:31:48;;;;;;;6.68;3.40;;;;;;;13.21;100.00;98411.50;5003430;28;20400;-83
2023/10/05 08:34:22;;;;;;;6.80;3.00;;;;;;;13.24;100.00;98416.34;4999404;28;20413;-84
2023/10/05 08:36:49;;;;;;;5.53;2.92;;;;;;;13.35;100.00;98404.81;5011570;28;20419;-84
2023/10/05 08:39:15;;;;;;;8.10;3.22;;;;;;;13.49;100.00;98414.06;5001300;28;20422;-80
2023/10/05 08:41:43;;;;;;;4.38;2.78;;;;;;;13.63;100.00;98405.72;5010325;28;20406;-81
2023/10/05 08:44:28;;;;;;;4.50;2.40;;;;;;;13.73;100.00;98409.34;5001377;28;20421;-81
2023/10/05 08:46:58;;;;;;;5.25;2.40;;;;;;;13.82;100.00;98407.88;4995781;28;20434;-83
2023/10/05 08:49:27;;;;;;;13.82;4.65;;;;;;;13.68;100.00;98398.59;5004388;28;20405;-82
2023/10/05 08:51:53;;;;;;;10.50;4.18;;;;;;;14.01;100.00;98403.03;5003916;28;20430;-79
2023/10/05 08:54:27;;;;;;;8.55;4.00;;;;;;;14.18;100.00;98405.63;5003736;28;20410;-83
2023/10/05 08:56:54;;;;;;;7.82;3.40;;;;;;;14.34;100.00;98408.22;5002716;28;20402;-82
2023/10/05 08:59:20;;;;;;;6.03;3.05;;;;;;;14.58;100.00;98402.63;5000239;28;20885;-83
2023/10/05 09:01:46;;;;;;;7.57;3.40;;;;;;;14.76;100.00;98401.47;5001836;28;20878;-82
2023/10/05 09:06:49;;;;;;;9.67;3.77;;;;;;;14.98;100.00;98403.00;4996319;28;20438;-84
2023/10/05 09:09:15;;;;;;;11.57;3.60;;;;;;;15.05;100.00;98408.91;4995794;28;20499;-83
2023/10/05 09:11:42;;;;;;;7.40;3.33;;;;;;;15.11;100.00;98397.22;5007139;28;20408;-84
2023/10/05 09:14:27;;;;;;;6.20;2.95;;;;;;;15.15;100.00;98399.38;4999013;28;20766;-82
2023/10/05 09:17:04;;;;;;;9.20;3.97;;;;;;;15.19;100.00;98389.81;4995637;28;20407;-82
2023/10/05 09:19:33;;;;;;;7.55;3.60;;;;;;;15.19;100.00;98392.47;5003573;28;20437;-82
2023/10/05 09:24:27;;;;;;;8.68;4.10;;;;;;;15.20;100.00;98396.75;4999891;28;20520;-79
2023/10/05 09:26:55;;;;;;;13.23;5.20;;;;;;;15.23;100.00;98413.06;5008314;28;20410;-81
2023/10/05 09:29:23;;;;;;;8.20;4.20;;;;;;;15.29;100.00;98413.91;4998101;28;20402;-80
2023/10/05 09:31:56;;;;;;;14.97;4.23;;;;;;;15.27;100.00;98413.34;5005536;28;20389;-81
2023/10/05 09:34:49;;;;;;;8.93;3.90;;;;;;;15.27;100.00;98416.81;4998366;28;20942;-82
2023/10/05 09:37:23;;;;;;;16.10;5.00;;;;;;;15.11;100.00;98420.41;5004873;28;20468;-82
2023/10/05 09:39:50;;;;;;;10.05;4.22;;;;;;;15.07;100.00;98420.13;5006540;28;20941;-82
2023/10/05 09:42:17;;;;;;;10.25;4.05;;;;;;;15.00;100.00;98421.41;4996063;28;20406;-81
2023/10/05 09:44:51;;;;;;;8.20;4.07;;;;;;;14.97;100.00;98411.22;5001212;28;20430;-82
2023/10/05 09:47:25;;;;;;;7.53;3.90;;;;;;;15.09;100.00;98415.34;5003066;28;20436;-82
2023/10/05 09:49:53;;;;;;;11.23;4.43;;;;;;;15.37;100.00;98411.56;5003143;28;20437;-82
2023/10/05 09:52:24;;;;;;;9.57;4.10;;;;;;;15.72;100.00;98424.34;5005423;28;20410;-81
2023/10/05 09:54:50;;;;;;;10.05;4.55;;;;;;;15.86;100.00;98436.16;5005994;28;20426;-80
2023/10/05 09:57:17;;;;;;;13.13;4.80;;;;;;;15.84;100.00;98443.66;5004102;28;20794;-81
2023/10/05 09:59:57;;;;;;;8.37;4.27;;;;;;;15.80;100.00;98437.19;4998896;28;20404;-83
2023/10/05 10:02:27;;;;;;;12.75;4.75;;;;;;;15.64;100.00;98426.69;5001445;28;20414;-82
2023/10/05 10:04:54;;;;;;;10.02;4.20;;;;;;;15.72;100.00;98413.66;5009367;28;20426;-82
2023/10/05 10:07:26;;;;;;;8.60;3.92;;;;;;;15.78;100.00;98417.19;5010622;28;20403;-81
2023/10/05 10:09:55;;;;;;;6.93;3.53;;;;;;;15.74;100.00;98410.75;4986762;28;20410;-82
2023/10/05 10:12:25;;;;;;;9.07;3.92;;;;;;;15.65;100.00;98415.75;5010619;28;20751;-82
2023/10/05 10:14:53;;;;;;;10.37;4.40;;;;;;;15.48;100.00;98420.44;5002392;28;20998;-82
2023/10/05 10:17:27;;;;;;;8.93;4.30;;;;;;;15.32;100.00;98416.88;5002351;28;20410;-82
2023/10/05 10:20:13;;;;;;;8.48;3.75;;;;;;;15.27;100.00;98422.16;5002545;28;20461;-82
2023/10/05 10:22:55;;;;;;;15.32;5.32;;;;;;;15.34;100.00;98412.06;5003281;28;20405;-82
2023/10/05 10:25:29;;;;;;;14.00;4.78;;;;;;;15.59;100.00;98410.66;5014524;28;20496;-82
2023/10/05 10:28:18;;;;;;;7.07;3.70;;;;;;;15.84;100.00;98421.47;5014681;28;20405;-83
2023/10/05 10:30:47;;;;;;;7.05;3.67;;;;;;;16.09;100.00;98420.78;5002796;28;20399;-83
2023/10/05 10:33:35;;;;;;;7.60;3.78;;;;;;;16.17;100.00;98422.94;5019762;28;20404;-82
2023/10/05 10:36:04;;;;;;;9.75;4.05;;;;;;;16.26;100.00;98432.06;5001982;28;20510;-81
2023/10/05 10:38:31;;;;;;;12.07;4.72;;;;;;;16.35;100.00;98427.84;5009055;28;20410;-79
2023/10/05 10:41:07;;;;;;;10.18;4.55;;;;;;;16.53;100.00;98422.03;5000918;28;20405;-79
2023/10/05 10:43:34;;;;;;;14.40;5.03;;;;;;;16.77;100.00;98427.69;5004540;28;20507;-81
2023/10/05 10:46:01;;;;;;;11.15;4.28;;;;;;;16.92;100.00;98425.03;5004200;28;20409;-82
2023/10/05 10:48:32;;;;;;;9.38;3.83;;;;;;;17.08;100.00;98428.53;5002260;28;20408;-82
2023/10/05 10:51:10;;;;;;;9.07;4.00;;;;;;;17.21;100.00;98422.66;5001891;28;20473;-81
2023/10/05 10:53:43;;;;;;;7.68;3.95;;;;;;;17.39;100.00;98421.28;5005062;28;20390;-82
2023/10/05 10:56:27;;;;;;;12.38;4.40;;;;;;;17.42;100.00;98426.91;5010240;28;20428;-82
2023/10/05 10:59:09;;;;;;;7.13;3.40;;;;;;;17.64;100.00;98418.59;5002160;28;20449;-82
2023/10/05 11:01:43;;;;;;;9.55;3.83;;;;;;;17.61;100.00;98394.22;5011183;28;20398;-83
2023/10/05 11:04:26;;;;;;;8.98;3.70;;;;;;;17.68;100.00;98411.63;5015402;28;20428;-82
2023/10/05 11:06:56;;;;;;;8.35;3.10;;;;;;;17.58;100.00;98402.78;5011418;28;20406;-81
2023/10/05 11:09:35;;;;;;;9.40;3.90;;;;;;;17.43;100.00;98398.28;5014713;28;20408;-79
2023/10/05 11:12:10;;;;;;;8.05;3.20;;;;;;;17.25;100.00;98398.81;4997390;28;20401;-80
2023/10/05 11:14:42;;;;;;;7.47;3.30;;;;;;;17.11;100.00;98401.25;4997343;28;20643;-79
2023/10/05 11:17:24;;;;;;;8.60;3.40;;;;;;;16.96;100.00;98404.72;4996929;28;20403;-80
2023/10/05 11:19:51;;;;;;;7.22;3.40;;;;;;;16.82;100.00;98403.66;5019806;28;20407;-81
2023/10/05 11:22:23;;;;;;;6.43;3.13;;;;;;;16.76;100.00;98423.44;5028279;28;20435;-82
2023/10/05 11:25:14;;;;;;;7.93;3.30;;;;;;;16.75;100.00;98411.13;5013542;28;20429;-81
2023/10/05 11:27:44;;;;;;;13.10;4.23;;;;;;;16.45;100.00;98395.00;5008136;28;20407;-80
2023/10/05 11:30:18;;;;;;;7.77;3.90;;;;;;;16.50;100.00;98395.00;5008616;28;20449;-81
2023/10/05 11:32:45;;;;;;;12.48;4.40;;;;;;;16.49;100.00;98383.50;5005955;28;20426;-80
2023/10/05 11:35:28;;;;;;;13.63;4.85;;;;;;;16.45;100.00;98384.31;5014254;28;21471;-80
2023/10/05 11:38:04;;;;;;;19.23;5.37;;;;;;;16.17;100.00;98369.53;5006692;28;20409;-81
2023/10/05 11:40:34;;;;;;;15.00;4.53;;;;;;;16.15;100.00;98374.34;5015038;28;20434;-81
2023/10/05 11:43:04;;;;;;;10.27;4.03;;;;;;;16.16;100.00;98386.63;5014424;28;20783;-80
2023/10/05 11:45:30;;;;;;;6.90;3.03;;;;;;;16.18;100.00;98392.50;5004096;28;20929;-84
2023/10/05 11:47:57;;;;;;;11.45;3.88;;;;;;;16.24;100.00;98388.78;5010829;28;20400;-83
2023/10/05 11:50:32;;;;;;;6.78;3.22;;;;;;;16.33;100.00;98384.53;5007312;28;20398;-82
2023/10/05 11:52:58;;;;;;;8.23;3.58;;;;;;;16.43;100.00;98391.78;5006602;28;20444;-82
2023/10/05 11:55:25;;;;;;;9.68;3.60;;;;;;;16.49;100.00;98388.84;5007857;28;20394;-84
2023/10/05 11:57:52;;;;;;;14.68;4.40;;;;;;;16.39;100.00;98372.78;5010203;28;20401;-83
2023/10/05 12:00:19;;;;;;;10.73;3.75;;;;;;;16.46;100.00;98376.03;4992306;28;20407;-84
2023/10/05 12:02:45;;;;;;;7.40;3.67;;;;;;;16.59;100.00;98370.16;5006211;28;20421;-85
2023/10/05 12:05:12;;;;;;;6.85;3.22;;;;;;;16.76;100.00;98371.81;5023555;28;20437;-83